sensor_id;sensor_type;location;lat;lon;timestamp;pressure;altitude;pressure_sealevel;temperature;humidity
24160;BME280;62385;41.594;23.808;2024-02-15T00:00:40;95687.56;;;4.36;68.67
24160;BME280;62385;41.594;23.808;2024-02-15T00:03:06;95684.50;;;4.31;68.35
24160;BME280;62385;41.594;23.808;2024-02-15T00:05:32;95682.28;;;4.26;68.98
24160;BME280;62385;41.594;23.808;2024-02-15T00:08:02;95681.19;;;4.29;68.14
24160;BME280;62385;41.594;23.808;2024-02-15T00:10:27;95624.41;;;3.96;68.84
24160;BME280;62385;41.594;23.808;2024-02-15T00:12:53;95685.50;;;4.18;68.47
24160;BME280;62385;41.594;23.808;2024-02-15T00:15:18;95678.44;;;3.98;69.43
24160;BME280;62385;41.594;23.808;2024-02-15T00:17:45;95683.78;;;4.08;69.31
24160;BME280;62385;41.594;23.808;2024-02-15T00:20:12;95666.38;;;3.75;70.13
24160;BME280;62385;41.594;23.808;2024-02-15T00:22:38;95682.13;;;3.75;69.69
24160;BME280;62385;41.594;23.808;2024-02-15T00:25:06;95676.75;;;4.29;68.41
24160;BME280;62385;41.594;23.808;2024-02-15T00:27:35;95675.66;;;4.32;67.60
24160;BME280;62385;41.594;23.808;2024-02-15T00:30:04;95683.03;;;4.17;68.33
24160;BME280;62385;41.594;23.808;2024-02-15T00:32:33;95688.41;;;4.36;68.43
24160;BME280;62385;41.594;23.808;2024-02-15T00:34:59;95673.84;;;4.53;68.33
24160;BME280;62385;41.594;23.808;2024-02-15T00:37:24;95670.00;;;4.36;68.57
24160;BME280;62385;41.594;23.808;2024-02-15T00:39:50;95679.22;;;4.72;68.42
24160;BME280;62385;41.594;23.808;2024-02-15T00:42:16;95680.22;;;4.30;68.84
24160;BME280;62385;41.594;23.808;2024-02-15T00:44:42;95684.28;;;4.02;68.72
24160;BME280;62385;41.594;23.808;2024-02-15T00:47:12;95667.41;;;3.52;70.26
24160;BME280;62385;41.594;23.808;2024-02-15T00:49:38;95682.13;;;3.75;69.79
24160;BME280;62385;41.594;23.808;2024-02-15T00:52:04;95682.19;;;4.16;69.33
24160;BME280;62385;41.594;23.808;2024-02-15T00:54:29;95688.19;;;4.07;69.77
24160;BME280;62385;41.594;23.808;2024-02-15T00:56:55;95695.22;;;3.86;70.21
24160;BME280;62385;41.594;23.808;2024-02-15T00:59:21;95670.84;;;3.63;70.41
24160;BME280;62385;41.594;23.808;2024-02-15T01:01:46;95679.09;;;3.91;69.48
24160;BME280;62385;41.594;23.808;2024-02-15T01:04:13;95687.72;;;3.82;69.99
24160;BME280;62385;41.594;23.808;2024-02-15T01:06:39;95662.13;;;3.63;70.23
24160;BME280;62385;41.594;23.808;2024-02-15T01:09:04;95687.22;;;3.88;70.26
24160;BME280;62385;41.594;23.808;2024-02-15T01:11:30;95683.44;;;3.69;70.98
24160;BME280;62385;41.594;23.808;2024-02-15T01:13:57;95689.28;;;3.73;70.26
24160;BME280;62385;41.594;23.808;2024-02-15T01:16:23;95686.50;;;3.86;70.78
24160;BME280;62385;41.594;23.808;2024-02-15T01:18:50;95681.44;;;3.94;70.75
24160;BME280;62385;41.594;23.808;2024-02-15T01:21:15;95677.56;;;3.88;69.68
24160;BME280;62385;41.594;23.808;2024-02-15T01:23:42;95678.19;;;3.69;70.79
24160;BME280;62385;41.594;23.808;2024-02-15T01:26:09;95681.72;;;3.59;71.25
24160;BME280;62385;41.594;23.808;2024-02-15T01:28:34;95685.97;;;3.71;71.51
24160;BME280;62385;41.594;23.808;2024-02-15T01:31:00;95683.22;;;3.72;71.29
24160;BME280;62385;41.594;23.808;2024-02-15T01:33:27;95676.56;;;3.68;71.52
24160;BME280;62385;41.594;23.808;2024-02-15T01:35:52;95678.72;;;3.63;71.51
24160;BME280;62385;41.594;23.808;2024-02-15T01:38:18;95684.91;;;3.62;72.00
24160;BME280;62385;41.594;23.808;2024-02-15T01:40:46;95671.53;;;3.65;71.93
24160;BME280;62385;41.594;23.808;2024-02-15T01:43:12;95674.97;;;3.34;72.39
24160;BME280;62385;41.594;23.808;2024-02-15T01:45:37;95685.25;;;3.26;72.85
24160;BME280;62385;41.594;23.808;2024-02-15T01:48:04;95686.66;;;3.19;72.70
24160;BME280;62385;41.594;23.808;2024-02-15T01:50:31;95660.25;;;2.89;72.93
24160;BME280;62385;41.594;23.808;2024-02-15T01:52:58;95693.84;;;3.17;73.16
24160;BME280;62385;41.594;23.808;2024-02-15T01:55:24;95691.19;;;3.28;72.65
24160;BME280;62385;41.594;23.808;2024-02-15T01:57:53;95685.16;;;3.59;71.41
24160;BME280;62385;41.594;23.808;2024-02-15T02:00:19;95688.09;;;3.34;71.45
24160;BME280;62385;41.594;23.808;2024-02-15T02:02:45;95700.28;;;3.02;72.51
24160;BME280;62385;41.594;23.808;2024-02-15T02:05:15;95695.50;;;3.07;72.45
24160;BME280;62385;41.594;23.808;2024-02-15T02:07:42;95677.03;;;2.97;71.43
24160;BME280;62385;41.594;23.808;2024-02-15T02:10:08;95704.09;;;2.87;72.53
24160;BME280;62385;41.594;23.808;2024-02-15T02:12:36;95708.88;;;2.82;72.79
24160;BME280;62385;41.594;23.808;2024-02-15T02:15:09;95711.22;;;2.62;72.69
24160;BME280;62385;41.594;23.808;2024-02-15T02:17:36;95707.16;;;2.69;72.61
24160;BME280;62385;41.594;23.808;2024-02-15T02:20:02;95707.00;;;2.49;73.12
24160;BME280;62385;41.594;23.808;2024-02-15T02:22:34;95714.91;;;2.60;72.92
24160;BME280;62385;41.594;23.808;2024-02-15T02:25:07;95719.19;;;2.50;73.39
24160;BME280;62385;41.594;23.808;2024-02-15T02:27:36;95721.25;;;2.91;72.45
24160;BME280;62385;41.594;23.808;2024-02-15T02:30:12;95714.56;;;2.64;72.35
24160;BME280;62385;41.594;23.808;2024-02-15T02:32:43;95724.16;;;2.42;73.25
24160;BME280;62385;41.594;23.808;2024-02-15T02:35:09;95727.09;;;2.26;73.94
24160;BME280;62385;41.594;23.808;2024-02-15T02:37:37;95732.84;;;2.31;73.45
24160;BME280;62385;41.594;23.808;2024-02-15T02:40:08;95727.00;;;2.27;73.80
24160;BME280;62385;41.594;23.808;2024-02-15T02:42:52;95734.72;;;2.29;73.19
24160;BME280;62385;41.594;23.808;2024-02-15T02:45:19;95741.28;;;2.00;74.81
24160;BME280;62385;41.594;23.808;2024-02-15T02:47:49;95733.84;;;2.17;73.89
24160;BME280;62385;41.594;23.808;2024-02-15T02:50:15;95723.34;;;2.06;74.24
24160;BME280;62385;41.594;23.808;2024-02-15T02:52:41;95738.09;;;2.07;74.13
24160;BME280;62385;41.594;23.808;2024-02-15T02:55:06;95739.63;;;1.99;74.51
24160;BME280;62385;41.594;23.808;2024-02-15T02:57:37;95732.66;;;1.86;74.72
24160;BME280;62385;41.594;23.808;2024-02-15T03:00:05;95725.84;;;2.08;74.27
24160;BME280;62385;41.594;23.808;2024-02-15T03:02:34;95741.84;;;1.92;74.65
24160;BME280;62385;41.594;23.808;2024-02-15T03:05:03;95750.75;;;2.13;74.42
24160;BME280;62385;41.594;23.808;2024-02-15T03:07:32;95744.94;;;2.21;74.27
24160;BME280;62385;41.594;23.808;2024-02-15T03:09:58;95731.16;;;2.30;73.55
24160;BME280;62385;41.594;23.808;2024-02-15T03:12:23;95737.31;;;2.18;73.71
24160;BME280;62385;41.594;23.808;2024-02-15T03:14:49;95745.59;;;2.36;73.55
24160;BME280;62385;41.594;23.808;2024-02-15T03:17:15;95726.53;;;2.33;73.26
24160;BME280;62385;41.594;23.808;2024-02-15T03:19:41;95740.44;;;1.99;74.28
24160;BME280;62385;41.594;23.808;2024-02-15T03:22:06;95749.13;;;2.00;74.05
24160;BME280;62385;41.594;23.808;2024-02-15T03:24:32;95741.94;;;1.91;74.58
24160;BME280;62385;41.594;23.808;2024-02-15T03:26:58;95748.47;;;1.61;75.40
24160;BME280;62385;41.594;23.808;2024-02-15T03:29:23;95726.34;;;1.78;74.74
24160;BME280;62385;41.594;23.808;2024-02-15T03:31:50;95738.84;;;1.85;74.52
24160;BME280;62385;41.594;23.808;2024-02-15T03:34:18;95747.19;;;1.91;74.24
24160;BME280;62385;41.594;23.808;2024-02-15T03:36:47;95756.34;;;1.85;75.01
24160;BME280;62385;41.594;23.808;2024-02-15T03:39:17;95755.13;;;1.78;74.60
24160;BME280;62385;41.594;23.808;2024-02-15T03:41:42;95763.59;;;1.81;74.99
24160;BME280;62385;41.594;23.808;2024-02-15T03:44:12;95749.13;;;1.52;75.44
24160;BME280;62385;41.594;23.808;2024-02-15T03:46:37;95746.81;;;1.60;75.63
24160;BME280;62385;41.594;23.808;2024-02-15T03:49:03;95752.97;;;1.59;74.60
24160;BME280;62385;41.594;23.808;2024-02-15T03:51:28;95747.09;;;1.32;75.87
24160;BME280;62385;41.594;23.808;2024-02-15T03:53:54;95747.50;;;1.38;75.91
24160;BME280;62385;41.594;23.808;2024-02-15T03:56:20;95747.97;;;1.56;75.82
24160;BME280;62385;41.594;23.808;2024-02-15T03:58:48;95756.09;;;1.41;75.75
24160;BME280;62385;41.594;23.808;2024-02-15T04:01:16;95744.50;;;1.32;75.90
24160;BME280;62385;41.594;23.808;2024-02-15T04:03:41;95746.66;;;1.38;75.79
24160;BME280;62385;41.594;23.808;2024-02-15T04:06:07;95755.31;;;1.75;75.30
24160;BME280;62385;41.594;23.808;2024-02-15T04:08:32;95751.25;;;1.71;74.50
24160;BME280;62385;41.594;23.808;2024-02-15T04:10:59;95725.19;;;1.09;75.70
24160;BME280;62385;41.594;23.808;2024-02-15T04:13:24;95757.75;;;1.29;76.40
24160;BME280;62385;41.594;23.808;2024-02-15T04:15:50;95754.66;;;1.24;76.20
24160;BME280;62385;41.594;23.808;2024-02-15T04:18:19;95748.78;;;1.20;76.56
24160;BME280;62385;41.594;23.808;2024-02-15T04:20:44;95754.22;;;1.17;76.52
24160;BME280;62385;41.594;23.808;2024-02-15T04:23:12;95772.84;;;1.13;76.67
24160;BME280;62385;41.594;23.808;2024-02-15T04:25:37;95747.81;;;1.34;76.30
24160;BME280;62385;41.594;23.808;2024-02-15T04:28:03;95767.88;;;1.46;75.17
24160;BME280;62385;41.594;23.808;2024-02-15T04:30:30;95776.31;;;1.62;75.58
24160;BME280;62385;41.594;23.808;2024-02-15T04:32:56;95770.94;;;1.76;74.57
24160;BME280;62385;41.594;23.808;2024-02-15T04:35:21;95767.19;;;1.92;74.48
24160;BME280;62385;41.594;23.808;2024-02-15T04:37:48;95777.03;;;1.88;74.64
24160;BME280;62385;41.594;23.808;2024-02-15T04:40:14;95759.50;;;1.77;74.90
24160;BME280;62385;41.594;23.808;2024-02-15T04:42:40;95763.41;;;1.96;74.14
24160;BME280;62385;41.594;23.808;2024-02-15T04:45:07;95772.22;;;1.58;75.39
24160;BME280;62385;41.594;23.808;2024-02-15T04:47:35;95771.88;;;1.75;74.98
24160;BME280;62385;41.594;23.808;2024-02-15T04:50:01;95770.25;;;1.49;74.87
24160;BME280;62385;41.594;23.808;2024-02-15T04:52:28;95776.75;;;1.20;75.32
24160;BME280;62385;41.594;23.808;2024-02-15T04:54:53;95764.63;;;0.81;76.10
24160;BME280;62385;41.594;23.808;2024-02-15T04:57:27;95777.91;;;1.03;76.37
24160;BME280;62385;41.594;23.808;2024-02-15T04:59:56;95763.75;;;1.31;75.40
24160;BME280;62385;41.594;23.808;2024-02-15T05:02:23;95781.84;;;1.09;75.97
24160;BME280;62385;41.594;23.808;2024-02-15T05:04:52;95766.41;;;0.93;75.77
24160;BME280;62385;41.594;23.808;2024-02-15T05:07:22;95776.44;;;0.86;76.73
24160;BME280;62385;41.594;23.808;2024-02-15T05:09:51;95783.31;;;0.75;76.96
24160;BME280;62385;41.594;23.808;2024-02-15T05:12:23;95789.06;;;0.67;77.33
24160;BME280;62385;41.594;23.808;2024-02-15T05:14:51;95792.13;;;0.74;76.94
24160;BME280;62385;41.594;23.808;2024-02-15T05:17:18;95768.16;;;0.55;77.14
24160;BME280;62385;41.594;23.808;2024-02-15T05:19:44;95799.00;;;0.75;76.72
24160;BME280;62385;41.594;23.808;2024-02-15T05:22:10;95773.31;;;0.56;76.71
24160;BME280;62385;41.594;23.808;2024-02-15T05:24:37;95796.91;;;1.05;76.24
24160;BME280;62385;41.594;23.808;2024-02-15T05:27:04;95790.66;;;0.95;76.86
24160;BME280;62385;41.594;23.808;2024-02-15T05:29:30;95817.44;;;0.99;76.78
24160;BME280;62385;41.594;23.808;2024-02-15T05:31:59;95819.41;;;0.95;76.92
24160;BME280;62385;41.594;23.808;2024-02-15T05:34:25;95819.41;;;0.82;77.22
24160;BME280;62385;41.594;23.808;2024-02-15T05:36:50;95788.88;;;0.96;76.40
24160;BME280;62385;41.594;23.808;2024-02-15T05:39:17;95778.53;;;0.81;76.37
24160;BME280;62385;41.594;23.808;2024-02-15T05:41:45;95817.75;;;1.07;76.11
24160;BME280;62385;41.594;23.808;2024-02-15T05:44:11;95790.97;;;0.78;76.93
24160;BME280;62385;41.594;23.808;2024-02-15T05:46:37;95791.38;;;1.22;76.02
24160;BME280;62385;41.594;23.808;2024-02-15T05:49:04;95807.59;;;1.02;75.96
24160;BME280;62385;41.594;23.808;2024-02-15T05:51:30;95819.06;;;1.25;75.97
24160;BME280;62385;41.594;23.808;2024-02-15T05:53:56;95828.88;;;1.83;74.51
24160;BME280;62385;41.594;23.808;2024-02-15T05:56:25;95791.91;;;1.15;75.55
24160;BME280;62385;41.594;23.808;2024-02-15T05:58:52;95839.22;;;1.97;74.48
24160;BME280;62385;41.594;23.808;2024-02-15T06:01:17;95821.63;;;1.63;75.94
24160;BME280;62385;41.594;23.808;2024-02-15T06:03:43;95837.44;;;2.21;73.77
24160;BME280;62385;41.594;23.808;2024-02-15T06:06:10;95837.34;;;2.23;73.79
24160;BME280;62385;41.594;23.808;2024-02-15T06:08:37;95832.81;;;2.01;74.41
24160;BME280;62385;41.594;23.808;2024-02-15T06:11:04;95837.84;;;2.63;72.90
24160;BME280;62385;41.594;23.808;2024-02-15T06:13:31;95838.69;;;2.63;73.53
24160;BME280;62385;41.594;23.808;2024-02-15T06:15:57;95844.81;;;2.86;73.19
24160;BME280;62385;41.594;23.808;2024-02-15T06:18:28;95827.28;;;2.75;73.53
24160;BME280;62385;41.594;23.808;2024-02-15T06:20:55;95857.00;;;2.52;73.43
24160;BME280;62385;41.594;23.808;2024-02-15T06:23:25;95848.72;;;2.69;73.14
24160;BME280;62385;41.594;23.808;2024-02-15T06:25:53;95815.47;;;2.70;73.01
24160;BME280;62385;41.594;23.808;2024-02-15T06:28:20;95846.00;;;3.39;71.91
24160;BME280;62385;41.594;23.808;2024-02-15T06:31:04;95850.41;;;3.50;73.12
24160;BME280;62385;41.594;23.808;2024-02-15T06:33:49;95848.16;;;3.34;73.25
24160;BME280;62385;41.594;23.808;2024-02-15T06:36:33;95851.50;;;3.58;72.51
24160;BME280;62385;41.594;23.808;2024-02-15T06:39:17;95855.31;;;3.77;72.68
24160;BME280;62385;41.594;23.808;2024-02-15T06:42:01;95833.78;;;3.94;71.40
24160;BME280;62385;41.594;23.808;2024-02-15T06:44:27;95841.16;;;4.11;70.83
24160;BME280;62385;41.594;23.808;2024-02-15T06:46:53;95834.03;;;3.91;69.87
24160;BME280;62385;41.594;23.808;2024-02-15T06:49:19;95839.25;;;4.13;69.44
24160;BME280;62385;41.594;23.808;2024-02-15T06:51:48;95833.53;;;4.51;69.20
24160;BME280;62385;41.594;23.808;2024-02-15T06:54:13;95837.47;;;4.45;69.13
24160;BME280;62385;41.594;23.808;2024-02-15T06:56:39;95845.81;;;4.82;68.40
24160;BME280;62385;41.594;23.808;2024-02-15T06:59:05;95839.84;;;4.59;70.76
24160;BME280;62385;41.594;23.808;2024-02-15T07:01:31;95834.88;;;4.66;69.33
24160;BME280;62385;41.594;23.808;2024-02-15T07:03:59;95844.47;;;4.88;69.59
24160;BME280;62385;41.594;23.808;2024-02-15T07:06:25;95842.91;;;4.85;69.18
24160;BME280;62385;41.594;23.808;2024-02-15T07:08:52;95845.38;;;4.98;69.23
24160;BME280;62385;41.594;23.808;2024-02-15T07:11:20;95843.56;;;4.98;69.43
24160;BME280;62385;41.594;23.808;2024-02-15T07:13:47;95847.22;;;5.07;67.97
24160;BME280;62385;41.594;23.808;2024-02-15T07:16:12;95852.31;;;4.99;67.98
24160;BME280;62385;41.594;23.808;2024-02-15T07:18:40;95842.69;;;4.88;68.71
24160;BME280;62385;41.594;23.808;2024-02-15T07:21:06;95842.16;;;4.94;68.11
24160;BME280;62385;41.594;23.808;2024-02-15T07:23:37;95848.84;;;5.19;67.86
24160;BME280;62385;41.594;23.808;2024-02-15T07:26:03;95840.00;;;5.50;66.41
24160;BME280;62385;41.594;23.808;2024-02-15T07:28:29;95830.50;;;5.38;66.26
24160;BME280;62385;41.594;23.808;2024-02-15T07:30:56;95815.59;;;5.48;65.66
24160;BME280;62385;41.594;23.808;2024-02-15T07:33:22;95828.19;;;5.45;66.34
24160;BME280;62385;41.594;23.808;2024-02-15T07:35:49;95817.34;;;5.69;65.44
24160;BME280;62385;41.594;23.808;2024-02-15T07:38:17;95845.34;;;5.70;65.87
24160;BME280;62385;41.594;23.808;2024-02-15T07:40:42;95797.41;;;5.15;66.23
24160;BME280;62385;41.594;23.808;2024-02-15T07:43:09;95830.63;;;5.88;65.18
24160;BME280;62385;41.594;23.808;2024-02-15T07:45:35;95838.44;;;5.99;65.51
24160;BME280;62385;41.594;23.808;2024-02-15T07:48:05;95807.81;;;6.08;65.04
24160;BME280;62385;41.594;23.808;2024-02-15T07:50:31;95829.47;;;6.30;65.11
24160;BME280;62385;41.594;23.808;2024-02-15T07:52:57;95836.31;;;6.52;65.17
24160;BME280;62385;41.594;23.808;2024-02-15T07:55:23;95837.13;;;6.43;66.04
24160;BME280;62385;41.594;23.808;2024-02-15T07:57:52;95835.19;;;6.64;65.26
24160;BME280;62385;41.594;23.808;2024-02-15T08:00:19;95833.13;;;6.77;64.29
24160;BME280;62385;41.594;23.808;2024-02-15T08:02:45;95835.75;;;6.68;64.44
24160;BME280;62385;41.594;23.808;2024-02-15T08:13:08;95826.19;;;6.76;66.45
24160;BME280;62385;41.594;23.808;2024-02-15T08:27:02;95816.31;;;7.54;63.10
24160;BME280;62385;41.594;23.808;2024-02-15T08:29:30;95789.84;;;7.73;61.43
24160;BME280;62385;41.594;23.808;2024-02-15T08:31:55;95808.44;;;7.81;61.86
24160;BME280;62385;41.594;23.808;2024-02-15T08:34:21;95783.47;;;7.66;61.43
24160;BME280;62385;41.594;23.808;2024-02-15T08:36:46;95804.88;;;7.63;62.80
24160;BME280;62385;41.594;23.808;2024-02-15T08:39:13;95801.00;;;7.94;61.83
24160;BME280;62385;41.594;23.808;2024-02-15T08:41:41;95797.53;;;7.94;61.76
24160;BME280;62385;41.594;23.808;2024-02-15T08:44:07;95800.69;;;7.97;62.66
24160;BME280;62385;41.594;23.808;2024-02-15T08:46:37;95790.63;;;8.10;61.23
24160;BME280;62385;41.594;23.808;2024-02-15T08:49:02;95807.22;;;8.03;62.67
24160;BME280;62385;41.594;23.808;2024-02-15T08:51:29;95810.97;;;8.00;61.78
24160;BME280;62385;41.594;23.808;2024-02-15T08:53:56;95811.50;;;7.76;62.74
24160;BME280;62385;41.594;23.808;2024-02-15T08:56:21;95792.38;;;8.19;61.91
24160;BME280;62385;41.594;23.808;2024-02-15T08:58:48;95818.78;;;7.65;61.47
24160;BME280;62385;41.594;23.808;2024-02-15T09:01:14;95814.66;;;6.87;62.42
24160;BME280;62385;41.594;23.808;2024-02-15T09:03:40;95812.88;;;7.80;61.29
24160;BME280;62385;41.594;23.808;2024-02-15T09:06:05;95810.09;;;7.82;61.05
24160;BME280;62385;41.594;23.808;2024-02-15T09:08:33;95800.00;;;7.95;60.66
24160;BME280;62385;41.594;23.808;2024-02-15T09:10:58;95813.06;;;7.69;60.40
24160;BME280;62385;41.594;23.808;2024-02-15T09:13:24;95801.50;;;8.25;60.93
24160;BME280;62385;41.594;23.808;2024-02-15T09:15:50;95798.34;;;8.49;60.29
24160;BME280;62385;41.594;23.808;2024-02-15T09:18:16;95796.19;;;8.34;58.98
24160;BME280;62385;41.594;23.808;2024-02-15T09:20:43;95804.06;;;8.17;60.01
24160;BME280;62385;41.594;23.808;2024-02-15T09:23:12;95799.47;;;7.64;60.62
24160;BME280;62385;41.594;23.808;2024-02-15T09:25:40;95779.16;;;7.92;60.72
24160;BME280;62385;41.594;23.808;2024-02-15T09:28:08;95792.19;;;8.30;60.56
24160;BME280;62385;41.594;23.808;2024-02-15T09:30:33;95803.34;;;7.70;60.47
24160;BME280;62385;41.594;23.808;2024-02-15T09:33:01;95782.22;;;8.42;60.34
24160;BME280;62385;41.594;23.808;2024-02-15T09:35:30;95793.78;;;8.59;59.62
24160;BME280;62385;41.594;23.808;2024-02-15T09:37:56;95785.63;;;8.34;58.91
24160;BME280;62385;41.594;23.808;2024-02-15T09:40:22;95783.50;;;8.56;58.80
24160;BME280;62385;41.594;23.808;2024-02-15T09:42:52;95791.59;;;8.72;58.28
24160;BME280;62385;41.594;23.808;2024-02-15T09:45:18;95762.94;;;8.67;58.11
24160;BME280;62385;41.594;23.808;2024-02-15T09:47:46;95764.81;;;8.75;59.13
24160;BME280;62385;41.594;23.808;2024-02-15T09:50:16;95782.50;;;8.92;57.96
24160;BME280;62385;41.594;23.808;2024-02-15T09:55:11;95769.38;;;9.08;58.80
24160;BME280;62385;41.594;23.808;2024-02-15T09:57:39;95770.78;;;9.20;58.54
24160;BME280;62385;41.594;23.808;2024-02-15T10:00:07;95770.78;;;9.20;57.87
24160;BME280;62385;41.594;23.808;2024-02-15T10:02:35;95768.06;;;9.30;57.67
24160;BME280;62385;41.594;23.808;2024-02-15T10:05:02;95739.94;;;9.11;58.30
24160;BME280;62385;41.594;23.808;2024-02-15T10:07:27;95754.53;;;9.15;56.50
24160;BME280;62385;41.594;23.808;2024-02-15T10:09:54;95755.97;;;9.27;57.85
24160;BME280;62385;41.594;23.808;2024-02-15T10:12:19;95751.09;;;8.97;59.41
24160;BME280;62385;41.594;23.808;2024-02-15T10:14:51;95705.41;;;9.21;57.74
24160;BME280;62385;41.594;23.808;2024-02-15T10:17:20;95722.53;;;9.35;57.73
24160;BME280;62385;41.594;23.808;2024-02-15T10:20:15;95725.31;;;9.59;58.50
24160;BME280;62385;41.594;23.808;2024-02-15T10:22:41;95707.03;;;9.48;47.91
24160;BME280;62385;41.594;23.808;2024-02-15T10:25:13;95723.31;;;9.61;45.70
24160;BME280;62385;41.594;23.808;2024-02-15T10:27:40;95736.25;;;9.56;53.78
24160;BME280;62385;41.594;23.808;2024-02-15T10:30:19;95707.00;;;9.82;45.75
24160;BME280;62385;41.594;23.808;2024-02-15T10:32:45;95730.34;;;10.20;45.43
24160;BME280;62385;41.594;23.808;2024-02-15T10:35:23;95732.94;;;10.04;43.65
24160;BME280;62385;41.594;23.808;2024-02-15T10:37:49;95727.59;;;9.96;45.28
24160;BME280;62385;41.594;23.808;2024-02-15T10:40:20;95717.84;;;10.04;42.40
24160;BME280;62385;41.594;23.808;2024-02-15T10:42:51;95708.41;;;10.02;43.01
24160;BME280;62385;41.594;23.808;2024-02-15T10:45:17;95712.81;;;10.35;42.50
24160;BME280;62385;41.594;23.808;2024-02-15T10:47:46;95720.75;;;10.27;42.83
24160;BME280;62385;41.594;23.808;2024-02-15T10:50:15;95691.41;;;10.53;41.03
24160;BME280;62385;41.594;23.808;2024-02-15T10:52:56;95705.19;;;10.40;40.84
24160;BME280;62385;41.594;23.808;2024-02-15T10:55:40;95712.13;;;10.25;41.43
24160;BME280;62385;41.594;23.808;2024-02-15T10:58:07;95702.34;;;10.34;42.08
24160;BME280;62385;41.594;23.808;2024-02-15T11:00:33;95713.19;;;9.98;41.46
24160;BME280;62385;41.594;23.808;2024-02-15T11:03:07;95699.69;;;10.26;41.96
24160;BME280;62385;41.594;23.808;2024-02-15T11:05:35;95690.41;;;10.30;41.65
24160;BME280;62385;41.594;23.808;2024-02-15T11:08:08;95687.28;;;10.42;41.92
24160;BME280;62385;41.594;23.808;2024-02-15T11:10:36;95696.66;;;10.12;41.47
24160;BME280;62385;41.594;23.808;2024-02-15T11:13:02;95681.31;;;9.82;41.49
24160;BME280;62385;41.594;23.808;2024-02-15T11:15:40;95671.84;;;10.30;41.77
24160;BME280;62385;41.594;23.808;2024-02-15T11:18:07;95681.72;;;10.11;40.85
24160;BME280;62385;41.594;23.808;2024-02-15T11:23:03;95679.47;;;10.25;41.24
24160;BME280;62385;41.594;23.808;2024-02-15T11:25:33;95682.63;;;10.36;41.40
24160;BME280;62385;41.594;23.808;2024-02-15T11:30:55;95664.72;;;10.30;40.10
24160;BME280;62385;41.594;23.808;2024-02-15T11:33:27;95668.84;;;10.49;39.87
24160;BME280;62385;41.594;23.808;2024-02-15T11:36:11;95655.25;;;10.68;39.74
24160;BME280;62385;41.594;23.808;2024-02-15T11:38:40;95652.59;;;10.76;39.70
24160;BME280;62385;41.594;23.808;2024-02-15T11:41:08;95655.03;;;11.02;40.58
24160;BME280;62385;41.594;23.808;2024-02-15T11:46:12;95637.94;;;11.04;41.17
24160;BME280;62385;41.594;23.808;2024-02-15T11:48:41;95648.88;;;11.09;40.58
24160;BME280;62385;41.594;23.808;2024-02-15T11:51:07;95636.41;;;11.10;39.89
24160;BME280;62385;41.594;23.808;2024-02-15T11:53:36;95637.41;;;11.17;40.04
24160;BME280;62385;41.594;23.808;2024-02-15T11:56:03;95633.50;;;10.81;39.70
24160;BME280;62385;41.594;23.808;2024-02-15T11:58:30;95630.09;;;11.11;39.05
24160;BME280;62385;41.594;23.808;2024-02-15T12:01:16;95629.28;;;11.02;39.28
24160;BME280;62385;41.594;23.808;2024-02-15T12:04:02;95622.34;;;10.93;39.31
24160;BME280;62385;41.594;23.808;2024-02-15T12:06:46;95626.59;;;11.19;39.41
24160;BME280;62385;41.594;23.808;2024-02-15T12:09:30;95615.69;;;10.97;39.37
24160;BME280;62385;41.594;23.808;2024-02-15T12:12:14;95621.63;;;11.16;39.04
24160;BME280;62385;41.594;23.808;2024-02-15T12:15:02;95614.38;;;10.93;40.59
24160;BME280;62385;41.594;23.808;2024-02-15T12:17:48;95607.13;;;11.34;40.48
24160;BME280;62385;41.594;23.808;2024-02-15T12:20:32;95608.44;;;11.38;40.63
24160;BME280;62385;41.594;23.808;2024-02-15T12:22:59;95605.63;;;11.32;39.24
24160;BME280;62385;41.594;23.808;2024-02-15T12:25:28;95607.00;;;11.58;39.49
24160;BME280;62385;41.594;23.808;2024-02-15T12:27:55;95613.88;;;11.45;38.55
24160;BME280;62385;41.594;23.808;2024-02-15T12:30:21;95596.19;;;11.21;38.15
24160;BME280;62385;41.594;23.808;2024-02-15T12:32:51;95604.97;;;11.61;40.10
24160;BME280;62385;41.594;23.808;2024-02-15T12:35:19;95611.00;;;11.54;39.11
24160;BME280;62385;41.594;23.808;2024-02-15T12:37:46;95612.66;;;11.55;38.17
24160;BME280;62385;41.594;23.808;2024-02-15T12:40:13;95606.66;;;11.62;39.69
24160;BME280;62385;41.594;23.808;2024-02-15T12:42:46;95602.47;;;11.67;38.48
24160;BME280;62385;41.594;23.808;2024-02-15T12:45:19;95566.13;;;11.51;37.77
24160;BME280;62385;41.594;23.808;2024-02-15T12:47:51;95589.16;;;11.98;38.25
24160;BME280;62385;41.594;23.808;2024-02-15T12:50:18;95596.69;;;11.94;39.41
24160;BME280;62385;41.594;23.808;2024-02-15T12:52:46;95597.41;;;11.88;38.38
24160;BME280;62385;41.594;23.808;2024-02-15T12:55:17;95597.16;;;11.75;37.65
24160;BME280;62385;41.594;23.808;2024-02-15T12:57:49;95591.94;;;11.82;37.58
24160;BME280;62385;41.594;23.808;2024-02-15T13:00:24;95593.59;;;12.06;37.82
24160;BME280;62385;41.594;23.808;2024-02-15T13:03:02;95573.72;;;11.93;37.62
24160;BME280;62385;41.594;23.808;2024-02-15T13:05:34;95584.63;;;12.07;37.05
24160;BME280;62385;41.594;23.808;2024-02-15T13:08:02;95571.91;;;11.63;37.41
24160;BME280;62385;41.594;23.808;2024-02-15T13:10:28;95580.84;;;12.24;36.60
24160;BME280;62385;41.594;23.808;2024-02-15T13:12:55;95596.22;;;12.36;35.79
24160;BME280;62385;41.594;23.808;2024-02-15T13:15:22;95580.13;;;12.07;35.67
24160;BME280;62385;41.594;23.808;2024-02-15T13:17:55;95587.59;;;12.12;35.48
24160;BME280;62385;41.594;23.808;2024-02-15T13:20:21;95582.59;;;11.86;35.75
24160;BME280;62385;41.594;23.808;2024-02-15T13:23:00;95581.81;;;11.77;35.06
24160;BME280;62385;41.594;23.808;2024-02-15T13:25:32;95587.16;;;11.69;35.44
24160;BME280;62385;41.594;23.808;2024-02-15T13:27:57;95585.69;;;11.97;35.89
24160;BME280;62385;41.594;23.808;2024-02-15T13:30:25;95594.25;;;12.08;35.63
24160;BME280;62385;41.594;23.808;2024-02-15T13:32:54;95597.41;;;11.88;35.83